createdAt,value
2022-11-12T00:04:39.113Z,42.90
2022-11-12T00:09:44.877Z,40.77
2022-11-12T00:14:50.317Z,40.50
2022-11-12T00:19:55.970Z,40.40
2022-11-12T00:25:01.084Z,40.93
2022-11-12T00:30:07.350Z,40.27
2022-11-12T00:40:19.632Z,39.43
2022-11-12T00:45:25.416Z,39.77
2022-11-12T00:50:30.433Z,38.67
2022-11-12T00:55:35.301Z,39.67
2022-11-12T01:00:40.584Z,39.80
2022-11-12T01:05:45.445Z,40.13
2022-11-12T01:10:50.844Z,39.30
2022-11-12T01:15:56.280Z,40.90
2022-11-12T01:21:06.077Z,39.47
2022-11-12T01:26:13.887Z,39.17
2022-11-12T01:31:21.660Z,39.03
2022-11-12T01:36:27.928Z,38.93
2022-11-12T01:41:35.412Z,38.02
2022-11-12T01:47:12.674Z,38.57
2022-11-12T01:52:45.336Z,39.35
2022-11-12T01:57:54.864Z,38.53
2022-11-12T02:03:02.701Z,39.37
2022-11-12T02:08:10.569Z,40.87
2022-11-12T02:13:33.392Z,40.30
2022-11-12T02:18:38.761Z,39.50
2022-11-12T02:23:43.630Z,39.27
2022-11-12T02:28:48.495Z,39.07
2022-11-12T02:33:54.319Z,38.30
2022-11-12T02:39:00.134Z,38.60
2022-11-12T02:44:05.165Z,37.67
2022-11-12T02:49:10.527Z,38.63
2022-11-12T02:54:16.321Z,38.67
2022-11-12T02:59:21.565Z,38.23
2022-11-12T03:04:26.700Z,38.65
2022-11-12T03:09:31.965Z,37.83
2022-11-12T03:14:37.486Z,38.63
2022-11-12T03:19:43.011Z,38.53
2022-11-12T03:24:48.829Z,39.40
2022-11-12T03:29:54.225Z,37.47
2022-11-12T03:34:59.743Z,38.40
2022-11-12T03:40:05.199Z,37.97
2022-11-12T03:45:10.928Z,37.63
2022-11-12T03:50:19.194Z,38.00
2022-11-12T03:55:25.750Z,37.80
2022-11-12T04:00:32.002Z,37.67
2022-11-12T04:05:54.665Z,39.27
2022-11-12T04:10:59.973Z,37.63
2022-11-12T04:16:29.443Z,37.97
2022-11-12T04:21:52.781Z,39.97
2022-11-12T04:26:57.852Z,39.00
2022-11-12T04:32:04.201Z,39.57
2022-11-12T04:37:10.301Z,38.02
2022-11-12T04:42:33.433Z,38.13
2022-11-12T04:47:40.895Z,37.47
2022-11-12T04:52:47.008Z,37.30
2022-11-12T04:57:56.169Z,37.75
2022-11-12T05:08:04.227Z,36.97
2022-11-12T05:13:09.239Z,37.93
2022-11-12T05:18:15.520Z,37.48
2022-11-12T05:23:21.220Z,36.88
2022-11-12T05:28:26.396Z,37.90
2022-11-12T05:33:32.245Z,36.93
2022-11-12T05:38:38.739Z,38.00
2022-11-12T05:43:44.928Z,38.20
2022-11-12T05:48:50.364Z,36.80
2022-11-12T05:53:57.137Z,38.33
2022-11-12T05:59:04.169Z,38.37
2022-11-12T06:04:12.193Z,40.03
2022-11-12T06:09:17.470Z,39.50
2022-11-12T06:14:22.346Z,38.50
2022-11-12T06:19:27.519Z,38.98
2022-11-12T06:24:35.418Z,37.63
2022-11-12T06:29:39.657Z,38.30
2022-11-12T06:34:44.543Z,37.60
2022-11-12T06:39:51.552Z,42.58
2022-11-12T06:44:57.618Z,42.78
2022-11-12T06:50:02.510Z,44.70
2022-11-12T06:55:09.340Z,46.53
2022-11-12T07:00:15.172Z,49.67
2022-11-12T07:05:20.604Z,45.00
2022-11-12T07:10:26.103Z,46.05
2022-11-12T07:15:31.592Z,43.13
2022-11-12T07:20:37.731Z,43.55
2022-11-12T07:25:43.320Z,41.15
2022-11-12T07:30:49.281Z,42.67
2022-11-12T07:36:00.735Z,43.48
2022-11-12T07:41:08.736Z,44.17
2022-11-12T07:46:16.031Z,46.83
2022-11-12T07:51:26.162Z,51.07
2022-11-12T07:56:31.541Z,51.87
2022-11-12T08:01:39.321Z,49.67
2022-11-12T08:06:44.930Z,49.00
2022-11-12T08:11:49.848Z,48.63
2022-11-12T08:16:54.815Z,48.87
2022-11-12T08:21:59.695Z,50.57
2022-11-12T08:27:05.015Z,49.07
2022-11-12T08:32:11.486Z,49.93
2022-11-12T08:37:16.662Z,50.00
2022-11-12T08:42:22.432Z,47.93
2022-11-12T08:47:27.622Z,48.13
2022-11-12T08:52:32.524Z,48.73
2022-11-12T08:57:44.354Z,48.67
2022-11-12T09:02:49.612Z,50.00
2022-11-12T09:08:11.011Z,51.10
2022-11-12T09:13:17.303Z,49.67
2022-11-12T09:23:27.560Z,50.67
2022-11-12T09:28:33.223Z,49.43
2022-11-12T09:33:38.592Z,50.55
2022-11-12T09:38:43.941Z,48.03
2022-11-12T09:43:54.404Z,47.50
2022-11-12T09:49:15.397Z,46.83
2022-11-12T09:54:34.142Z,47.48
2022-11-12T09:59:42.217Z,47.57
2022-11-12T10:04:53.285Z,47.43
2022-11-12T10:10:14.332Z,48.87
2022-11-12T10:15:42.606Z,48.30
2022-11-12T10:21:05.646Z,47.73
2022-11-12T10:26:16.494Z,46.87
2022-11-12T10:31:22.970Z,47.27
2022-11-12T10:36:34.937Z,47.57
2022-11-12T10:41:40.252Z,47.90
2022-11-12T10:46:45.175Z,47.50
2022-11-12T10:51:59.288Z,47.20
2022-11-12T10:57:24.989Z,47.00
2022-11-12T11:02:31.531Z,47.55
2022-11-12T11:07:36.981Z,47.00
2022-11-12T11:12:42.548Z,46.53
2022-11-12T11:17:47.579Z,47.07
2022-11-12T11:22:57.546Z,47.27
2022-11-12T11:28:33.926Z,46.97
2022-11-12T11:33:48.308Z,47.57
2022-11-12T11:39:02.465Z,47.63
2022-11-12T11:44:16.594Z,47.67
2022-11-12T11:49:37.016Z,47.17
2022-11-12T11:55:09.185Z,47.17
2022-11-12T12:00:25.629Z,47.80
2022-11-12T12:05:48.719Z,48.40
2022-11-12T12:11:08.078Z,48.43
2022-11-12T12:16:26.731Z,48.43
2022-11-12T12:21:34.341Z,48.67
2022-11-12T12:26:47.913Z,49.10
2022-11-12T12:31:58.538Z,52.57
2022-11-12T12:37:06.613Z,51.80
2022-11-12T12:42:18.397Z,49.87
2022-11-12T12:47:23.812Z,49.60
2022-11-12T12:57:36.209Z,49.65
2022-11-12T13:02:41.176Z,49.37
2022-11-12T13:07:49.371Z,49.57
2022-11-12T13:13:21.566Z,48.93
2022-11-12T13:18:42.204Z,48.63
2022-11-12T13:24:07.230Z,48.33
2022-11-12T13:29:34.026Z,49.07
2022-11-12T13:34:39.955Z,48.80
2022-11-12T13:39:46.260Z,49.00
2022-11-12T13:44:56.081Z,48.90
2022-11-12T13:50:01.810Z,49.03
2022-11-12T13:55:09.598Z,48.87
2022-11-12T14:00:24.095Z,48.23
2022-11-12T14:05:38.709Z,48.45
2022-11-12T14:10:46.626Z,48.83
2022-11-12T14:16:01.305Z,49.27
2022-11-12T14:21:10.629Z,49.23
2022-11-12T14:26:18.429Z,49.13
2022-11-12T14:31:26.184Z,48.87
2022-11-12T14:36:31.898Z,49.53
2022-11-12T14:41:40.814Z,48.23
2022-11-12T14:46:54.096Z,50.20
2022-11-12T14:52:10.628Z,50.20
2022-11-12T14:57:19.456Z,50.35
2022-11-12T15:02:58.921Z,49.67
2022-11-12T15:08:03.558Z,50.07
2022-11-12T15:13:14.594Z,49.57
2022-11-12T15:18:22.859Z,49.60
2022-11-12T15:23:28.504Z,53.00
2022-11-12T15:28:34.414Z,54.83
2022-11-12T15:33:39.312Z,61.97
2022-11-12T15:38:49.480Z,65.27
2022-11-12T15:43:54.915Z,58.00
2022-11-12T15:48:59.851Z,52.40
2022-11-12T15:54:06.217Z,49.03
2022-11-12T15:59:19.541Z,49.10
2022-11-12T16:04:25.173Z,49.30
2022-11-12T16:09:30.248Z,49.77
2022-11-12T16:14:36.981Z,48.83
2022-11-12T16:19:42.396Z,48.07
2022-11-12T16:24:47.402Z,49.33
2022-11-12T16:29:52.581Z,49.80
2022-11-12T16:35:01.320Z,49.40
2022-11-12T16:40:06.815Z,50.93
2022-11-12T16:45:13.620Z,50.03
2022-11-12T16:55:25.132Z,49.90
2022-11-12T17:00:31.336Z,49.35
2022-11-12T17:05:36.882Z,49.13
2022-11-12T17:10:42.741Z,47.57
2022-11-12T17:15:48.088Z,46.03
2022-11-12T17:20:53.888Z,56.43
2022-11-12T17:26:04.822Z,117.40
2022-11-12T17:31:13.539Z,102.43
2022-11-12T17:36:21.400Z,66.60
2022-11-12T17:41:30.463Z,59.43
2022-11-12T17:46:36.578Z,55.27
2022-11-12T17:51:41.978Z,49.80
2022-11-12T17:56:47.158Z,50.07
2022-11-12T18:01:52.914Z,49.67
2022-11-12T18:06:58.132Z,51.40
2022-11-12T18:12:03.246Z,50.40
2022-11-12T18:17:09.280Z,51.10
2022-11-12T18:22:16.389Z,47.90
2022-11-12T18:27:21.656Z,47.60
2022-11-12T18:32:27.217Z,49.73
2022-11-12T18:37:32.652Z,55.50
2022-11-12T18:42:37.673Z,65.37
2022-11-12T18:47:43.283Z,50.20
2022-11-12T18:52:48.153Z,63.83
2022-11-12T18:57:54.018Z,90.93
2022-11-12T19:02:59.603Z,78.43
2022-11-12T19:08:04.671Z,48.77
2022-11-12T19:13:09.576Z,46.60
2022-11-12T19:18:15.650Z,45.93
2022-11-12T19:23:21.210Z,50.27
2022-11-12T19:28:27.700Z,54.42
2022-11-12T19:33:33.128Z,71.97
2022-11-12T19:38:39.134Z,65.80
2022-11-12T19:43:44.521Z,57.03
2022-11-12T19:48:50.097Z,56.23
2022-11-12T19:53:55.415Z,60.30
2022-11-12T19:59:00.787Z,56.83
2022-11-12T20:04:06.453Z,50.05
2022-11-12T20:09:11.814Z,55.63
2022-11-12T20:14:17.332Z,55.10
2022-11-12T20:19:22.522Z,51.80
2022-11-12T20:24:28.942Z,53.20
2022-11-12T20:29:34.385Z,52.70
2022-11-12T20:34:39.642Z,51.67
2022-11-12T20:39:45.775Z,51.83
2022-11-12T20:44:51.860Z,51.68
2022-11-12T20:49:57.712Z,49.15
2022-11-12T20:55:02.874Z,51.10
2022-11-12T21:00:13.495Z,49.93
2022-11-12T21:05:15.551Z,50.13
2022-11-12T21:10:21.075Z,50.30
2022-11-12T21:15:26.291Z,45.60
2022-11-12T21:20:31.221Z,46.97
2022-11-12T21:25:37.262Z,50.17
2022-11-12T21:30:42.175Z,51.30
2022-11-12T21:35:54.562Z,53.48
2022-11-12T21:41:07.529Z,51.83
2022-11-12T21:46:27.194Z,53.83
2022-11-12T21:51:33.702Z,52.37
2022-11-12T21:56:40.578Z,51.20
2022-11-12T22:01:47.009Z,51.53
2022-11-12T22:06:52.495Z,50.33
2022-11-12T22:11:58.215Z,48.33
2022-11-12T22:17:03.728Z,47.73
2022-11-12T22:22:09.274Z,48.40
2022-11-12T22:27:14.568Z,53.65
2022-11-12T22:32:19.769Z,55.65
2022-11-12T22:37:25.251Z,48.70
2022-11-12T22:42:30.540Z,47.07
2022-11-12T22:47:39.380Z,46.40
2022-11-12T22:52:50.004Z,47.07
2022-11-12T22:57:51.648Z,47.33
2022-11-12T23:02:56.710Z,48.13
2022-11-12T23:08:01.612Z,49.77
2022-11-12T23:13:06.641Z,47.50
2022-11-12T23:18:12.516Z,46.33
2022-11-12T23:23:17.955Z,33.48
2022-11-12T23:28:23.300Z,46.90
2022-11-12T23:33:28.731Z,47.70
2022-11-12T23:38:33.783Z,46.67
2022-11-12T23:43:38.879Z,47.83
2022-11-12T23:48:44.628Z,44.73
2022-11-12T23:53:50.742Z,46.20
2022-11-12T23:58:55.896Z,44.47
